Time;durP1;ratioP1;P1;durP2;ratioP2;P2;SDS_P1;SDS_P2;PMS_P1;PMS_P2;Temp;Humidity;BMP_temperature;BMP_pressure;BME280_temperature;BME280_humidity;BME280_pressure;Samples;Min_cycle;Max_cycle;Signal;HPM_P1;HPM_P2
2024/03/23 00:01:03;;;;;;;3.75;3.20;;;;;;;;;;6245085;23;20484;-49
2024/03/23 00:03:36;;;;;;;3.42;3.13;;;;;;;;;;6244643;22;20243;-48
2024/03/23 00:06:08;;;;;;;3.72;3.03;;;;;;;;;;6244760;23;20261;-49
2024/03/23 00:08:41;;;;;;;3.15;2.85;;;;;;;;;;6244833;22;20192;-47
2024/03/23 00:11:13;;;;;;;2.40;2.20;;;;;;;;;;6244668;23;20244;-50
2024/03/23 00:13:46;;;;;;;2.38;2.17;;;;;;;;;;6244672;22;20591;-49
2024/03/23 00:16:18;;;;;;;3.20;2.55;;;;;;;;;;6244989;23;20660;-50
2024/03/23 00:18:51;;;;;;;2.70;2.50;;;;;;;;;;6244740;22;20768;-48
2024/03/23 00:21:23;;;;;;;3.30;2.78;;;;;;;;;;6244675;23;20197;-49
2024/03/23 00:23:56;;;;;;;4.00;3.63;;;;;;;;;;6244536;22;20583;-50
2024/03/23 00:26:28;;;;;;;2.05;1.95;;;;;;;;;;6244333;23;20201;-49
2024/03/23 00:29:01;;;;;;;3.35;3.05;;;;;;;;;;6244189;22;20243;-53
2024/03/23 00:31:32;;;;;;;3.95;3.08;;;;;;;;;;6244448;23;20196;-49
2024/03/23 00:34:05;;;;;;;2.92;2.60;;;;;;;;;;6244298;22;20173;-51
2024/03/23 00:36:37;;;;;;;3.40;3.10;;;;;;;;;;6244465;23;20162;-52
2024/03/23 00:39:11;;;;;;;2.75;2.45;;;;;;;;;;6244314;22;20529;-50
2024/03/23 00:41:43;;;;;;;2.22;1.75;;;;;;;;;;6244328;23;20227;-50
2024/03/23 00:44:16;;;;;;;3.47;2.67;;;;;;;;;;6244020;22;20200;-50
2024/03/23 00:46:48;;;;;;;3.50;3.20;;;;;;;;;;6244746;23;20625;-50
2024/03/23 00:49:21;;;;;;;3.90;3.50;;;;;;;;;;6243976;23;20197;-49
2024/03/23 00:51:53;;;;;;;2.97;2.67;;;;;;;;;;6244194;23;20157;-51
2024/03/23 00:54:22;;;;;;;4.03;3.33;;;;;;;;;;6244027;22;20239;-52
2024/03/23 00:56:48;;;;;;;3.63;3.10;;;;;;;;;;6243870;22;20188;-50
2024/03/23 00:59:16;;;;;;;4.32;3.53;;;;;;;;;;6243332;22;20665;-51
2024/03/23 01:01:42;;;;;;;4.35;3.00;;;;;;;;;;6243495;22;20252;-49
2024/03/23 01:04:10;;;;;;;5.55;3.00;;;;;;;;;;6243107;22;20799;-49
2024/03/23 01:06:36;;;;;;;6.78;3.15;;;;;;;;;;6244256;22;20180;-48
2024/03/23 01:09:04;;;;;;;3.83;2.60;;;;;;;;;;6244415;22;20197;-49
2024/03/23 01:11:31;;;;;;;4.43;2.40;;;;;;;;;;6243850;22;20173;-49
2024/03/23 01:13:59;;;;;;;4.00;2.65;;;;;;;;;;6244222;22;20299;-48
2024/03/23 01:16:25;;;;;;;4.88;2.88;;;;;;;;;;6244554;22;20251;-48
2024/03/23 01:18:53;;;;;;;4.63;2.38;;;;;;;;;;6244559;22;20690;-48
2024/03/23 01:21:19;;;;;;;5.10;2.80;;;;;;;;;;6244578;22;20173;-47
2024/03/23 01:23:47;;;;;;;6.28;2.60;;;;;;;;;;6243745;22;20172;-48
2024/03/23 01:26:13;;;;;;;4.07;3.03;;;;;;;;;;6243797;22;20197;-50
2024/03/23 01:28:42;;;;;;;5.68;2.60;;;;;;;;;;6244595;22;20201;-48
2024/03/23 01:31:08;;;;;;;5.32;2.53;;;;;;;;;;6244648;22;20180;-51
2024/03/23 01:33:36;;;;;;;2.88;2.28;;;;;;;;;;6244568;22;20200;-53
2024/03/23 01:36:03;;;;;;;12.35;2.55;;;;;;;;;;6244501;22;20177;-48
2024/03/23 01:38:30;;;;;;;5.22;2.60;;;;;;;;;;6244159;22;20204;-50
2024/03/23 01:40:59;;;;;;;4.10;2.33;;;;;;;;;;6245168;22;20183;-49
2024/03/23 01:43:27;;;;;;;7.25;3.17;;;;;;;;;;6245094;22;20177;-49
2024/03/23 01:45:55;;;;;;;6.13;2.78;;;;;;;;;;6244616;22;20193;-48
2024/03/23 01:48:23;;;;;;;5.47;2.85;;;;;;;;;;6245073;22;20193;-51
2024/03/23 01:50:49;;;;;;;6.57;3.25;;;;;;;;;;6244452;22;20227;-48
2024/03/23 01:53:19;;;;;;;4.07;2.85;;;;;;;;;;6244180;22;20181;-53
2024/03/23 01:55:46;;;;;;;8.40;3.00;;;;;;;;;;6245164;23;20208;-48
2024/03/23 01:58:13;;;;;;;3.75;2.45;;;;;;;;;;6245024;22;20653;-48
2024/03/23 02:00:40;;;;;;;6.30;3.10;;;;;;;;;;6245031;22;20515;-52
2024/03/23 02:03:27;;;;;;;5.90;2.50;;;;;;;;;;6246258;22;20682;-49
2024/03/23 02:05:54;;;;;;;5.10;3.13;;;;;;;;;;6246644;22;20203;-49
2024/03/23 02:08:23;;;;;;;6.55;4.18;;;;;;;;;;6245928;22;20197;-49
2024/03/23 02:10:50;;;;;;;8.52;3.25;;;;;;;;;;6246187;22;20247;-48
2024/03/23 02:13:19;;;;;;;7.07;3.45;;;;;;;;;;6245899;22;20195;-47
2024/03/23 02:15:46;;;;;;;7.10;3.65;;;;;;;;;;6245972;23;20256;-47
2024/03/23 02:18:13;;;;;;;3.70;3.30;;;;;;;;;;6245529;22;20189;-48
2024/03/23 02:20:41;;;;;;;4.15;3.08;;;;;;;;;;6246229;22;20172;-48
2024/03/23 02:23:16;;;;;;;6.55;3.55;;;;;;;;;;6245004;22;20180;-48
2024/03/23 02:25:42;;;;;;;12.20;3.08;;;;;;;;;;6246014;23;20240;-49
2024/03/23 02:28:10;;;;;;;8.02;3.15;;;;;;;;;;6244861;22;20529;-49
2024/03/23 02:30:37;;;;;;;3.53;3.00;;;;;;;;;;6246071;23;20264;-48
2024/03/23 02:33:05;;;;;;;4.18;3.33;;;;;;;;;;6245217;22;20181;-49
2024/03/23 02:35:31;;;;;;;5.53;2.92;;;;;;;;;;6246344;22;20507;-48
2024/03/23 02:37:59;;;;;;;4.55;3.10;;;;;;;;;;6244858;22;20710;-49
2024/03/23 02:40:28;;;;;;;4.53;3.38;;;;;;;;;;6245365;22;20177;-48
2024/03/23 02:42:55;;;;;;;4.43;2.78;;;;;;;;;;6245355;22;20228;-48
2024/03/23 02:45:22;;;;;;;5.53;2.88;;;;;;;;;;6245340;22;20253;-48
2024/03/23 02:47:51;;;;;;;2.78;2.40;;;;;;;;;;6244923;22;20303;-52
2024/03/23 02:50:18;;;;;;;3.53;2.90;;;;;;;;;;6245547;23;20231;-50
2024/03/23 02:52:45;;;;;;;7.13;3.70;;;;;;;;;;6245151;22;20177;-48
2024/03/23 02:55:12;;;;;;;4.70;2.42;;;;;;;;;;6245857;22;20181;-51
2024/03/23 02:57:41;;;;;;;3.28;2.58;;;;;;;;;;6245648;22;20227;-49
2024/03/23 03:00:09;;;;;;;4.00;2.80;;;;;;;;;;6245653;22;20255;-51
2024/03/23 03:02:37;;;;;;;5.57;2.60;;;;;;;;;;6245616;22;20246;-49
2024/03/23 03:05:04;;;;;;;3.70;2.53;;;;;;;;;;6245596;22;20626;-51
2024/03/23 03:07:32;;;;;;;5.53;3.00;;;;;;;;;;6245489;23;20227;-49
2024/03/23 03:09:58;;;;;;;5.75;2.63;;;;;;;;;;6244839;22;20287;-50
2024/03/23 03:12:26;;;;;;;6.65;2.40;;;;;;;;;;6244256;22;20702;-51
2024/03/23 03:14:54;;;;;;;3.33;2.58;;;;;;;;;;6245057;22;20177;-50
2024/03/23 03:17:23;;;;;;;6.57;2.58;;;;;;;;;;6244666;22;20190;-53
2024/03/23 03:19:49;;;;;;;2.80;2.35;;;;;;;;;;6244986;23;20173;-52
2024/03/23 03:22:17;;;;;;;4.75;2.55;;;;;;;;;;6244752;22;20264;-52
2024/03/23 03:24:43;;;;;;;6.97;3.08;;;;;;;;;;6245007;22;20173;-54
2024/03/23 03:27:11;;;;;;;4.53;2.40;;;;;;;;;;6244264;22;20197;-50
2024/03/23 03:29:37;;;;;;;3.90;2.80;;;;;;;;;;6245125;22;20195;-50
2024/03/23 03:32:06;;;;;;;2.42;2.13;;;;;;;;;;6243883;22;20223;-53
2024/03/23 03:34:34;;;;;;;3.47;2.45;;;;;;;;;;6245359;23;20735;-50
2024/03/23 03:37:02;;;;;;;4.70;2.70;;;;;;;;;;6243956;22;20179;-55
2024/03/23 03:39:28;;;;;;;4.10;2.05;;;;;;;;;;6244632;22;20177;-50
2024/03/23 03:41:55;;;;;;;2.60;2.33;;;;;;;;;;6243988;22;20173;-51
2024/03/23 03:44:22;;;;;;;5.32;2.53;;;;;;;;;;6244786;22;20589;-50
2024/03/23 03:46:49;;;;;;;2.50;2.10;;;;;;;;;;6244203;22;20197;-51
2024/03/23 03:49:17;;;;;;;5.53;2.33;;;;;;;;;;6244331;22;20193;-51
2024/03/23 03:51:45;;;;;;;5.82;2.63;;;;;;;;;;6244577;22;20183;-51
2024/03/23 03:54:11;;;;;;;4.50;2.03;;;;;;;;;;6244099;22;20230;-52
2024/03/23 03:56:39;;;;;;;4.15;2.83;;;;;;;;;;6244610;22;20506;-50
2024/03/23 03:59:06;;;;;;;4.40;2.10;;;;;;;;;;6244285;22;20717;-53
2024/03/23 04:01:33;;;;;;;4.28;2.40;;;;;;;;;;6244156;22;20181;-53
2024/03/23 04:03:59;;;;;;;2.22;1.88;;;;;;;;;;6244912;22;20640;-52
2024/03/23 04:06:28;;;;;;;4.65;2.83;;;;;;;;;;6244104;22;20197;-47
2024/03/23 04:08:55;;;;;;;5.03;3.05;;;;;;;;;;6244376;22;20193;-51
2024/03/23 04:11:22;;;;;;;5.88;2.00;;;;;;;;;;6244568;22;20172;-48
2024/03/23 04:13:49;;;;;;;4.50;2.85;;;;;;;;;;6244405;22;20626;-49
2024/03/23 04:16:30;;;;;;;4.43;2.22;;;;;;;;;;6244322;22;20244;-48
2024/03/23 04:18:56;;;;;;;5.40;2.28;;;;;;;;;;6245000;23;20193;-48
2024/03/23 04:21:24;;;;;;;2.67;2.10;;;;;;;;;;6244510;22;20179;-48
2024/03/23 04:23:51;;;;;;;5.72;2.28;;;;;;;;;;6244298;22;20173;-47
2024/03/23 04:26:19;;;;;;;6.97;2.90;;;;;;;;;;6244243;22;20283;-48
2024/03/23 04:28:45;;;;;;;2.50;1.65;;;;;;;;;;6244524;22;20799;-49
2024/03/23 04:31:13;;;;;;;5.20;2.10;;;;;;;;;;6243613;22;20184;-48
2024/03/23 04:33:39;;;;;;;4.25;2.30;;;;;;;;;;6244364;22;20177;-48
2024/03/23 04:36:07;;;;;;;4.50;2.25;;;;;;;;;;6243882;22;20186;-48
2024/03/23 04:38:35;;;;;;;2.90;2.20;;;;;;;;;;6244550;23;20579;-50
2024/03/23 04:41:04;;;;;;;2.72;1.42;;;;;;;;;;6244136;22;20177;-48
2024/03/23 04:43:31;;;;;;;3.05;1.70;;;;;;;;;;6244279;23;20260;-49
2024/03/23 04:45:59;;;;;;;5.57;1.73;;;;;;;;;;6243932;22;20187;-48
2024/03/23 04:48:26;;;;;;;1.55;1.45;;;;;;;;;;6244167;22;20247;-52
2024/03/23 04:50:57;;;;;;;2.28;1.50;;;;;;;;;;6244126;22;20177;-47
2024/03/23 04:53:28;;;;;;;2.28;1.88;;;;;;;;;;6244418;23;20192;-47
2024/03/23 04:55:55;;;;;;;2.08;1.23;;;;;;;;;;6244342;23;20168;-49
2024/03/23 04:58:24;;;;;;;1.95;1.70;;;;;;;;;;6243792;22;20203;-47
2024/03/23 05:00:55;;;;;;;1.20;1.10;;;;;;;;;;6244147;22;20177;-49
2024/03/23 05:03:22;;;;;;;4.43;1.60;;;;;;;;;;6244166;22;20218;-47
2024/03/23 05:05:49;;;;;;;2.20;1.40;;;;;;;;;;6244037;22;20173;-47
2024/03/23 05:08:17;;;;;;;3.08;1.50;;;;;;;;;;6244032;22;20251;-48
2024/03/23 05:10:44;;;;;;;2.00;1.20;;;;;;;;;;6244167;22;20200;-47
2024/03/23 05:13:11;;;;;;;1.20;1.10;;;;;;;;;;6244672;22;20177;-49
2024/03/23 05:15:39;;;;;;;1.92;1.20;;;;;;;;;;6243894;22;20204;-49
2024/03/23 05:18:07;;;;;;;1.42;1.33;;;;;;;;;;6243725;22;20195;-50
2024/03/23 05:20:34;;;;;;;1.95;1.05;;;;;;;;;;6244049;22;20514;-47
2024/03/23 05:23:01;;;;;;;1.55;0.98;;;;;;;;;;6243259;22;20584;-49
2024/03/23 05:25:28;;;;;;;1.75;1.27;;;;;;;;;;6243608;22;20172;-47
2024/03/23 05:27:55;;;;;;;2.08;0.95;;;;;;;;;;6243187;22;20201;-47
2024/03/23 05:30:21;;;;;;;1.08;0.98;;;;;;;;;;6243784;22;20184;-48
2024/03/23 05:32:50;;;;;;;2.35;1.50;;;;;;;;;;6243093;22;20173;-50
2024/03/23 05:35:17;;;;;;;1.20;1.10;;;;;;;;;;6243669;22;20179;-48
2024/03/23 05:37:44;;;;;;;1.13;1.02;;;;;;;;;;6244813;22;20195;-48
2024/03/23 05:40:15;;;;;;;3.25;1.10;;;;;;;;;;6245876;22;20181;-48
2024/03/23 05:42:42;;;;;;;0.90;0.90;;;;;;;;;;6246381;23;20248;-48
2024/03/23 05:45:09;;;;;;;1.25;1.15;;;;;;;;;;6245743;22;20219;-48
2024/03/23 05:47:37;;;;;;;1.02;0.93;;;;;;;;;;6245900;22;20542;-50
2024/03/23 05:50:06;;;;;;;1.40;1.30;;;;;;;;;;6245385;22;20256;-48
2024/03/23 05:52:33;;;;;;;1.05;0.85;;;;;;;;;;6245290;22;20669;-47
2024/03/23 05:55:00;;;;;;;0.73;0.73;;;;;;;;;;6245362;22;20594;-49
2024/03/23 05:57:27;;;;;;;0.88;0.88;;;;;;;;;;6245734;22;20189;-52
2024/03/23 05:59:54;;;;;;;1.35;0.70;;;;;;;;;;6245619;22;20494;-49
2024/03/23 06:02:21;;;;;;;0.93;0.93;;;;;;;;;;6245301;22;20173;-48
2024/03/23 06:04:48;;;;;;;0.93;0.88;;;;;;;;;;6245866;22;20482;-48
2024/03/23 06:07:16;;;;;;;0.98;0.98;;;;;;;;;;6245458;22;20200;-47
2024/03/23 06:09:43;;;;;;;1.00;1.00;;;;;;;;;;6245231;22;20173;-51
2024/03/23 06:12:11;;;;;;;0.77;0.77;;;;;;;;;;6245444;22;20264;-50
2024/03/23 06:14:37;;;;;;;1.00;0.80;;;;;;;;;;6245268;22;20177;-53
2024/03/23 06:17:05;;;;;;;2.05;1.00;;;;;;;;;;6244353;22;20189;-49
2024/03/23 06:19:32;;;;;;;0.63;0.63;;;;;;;;;;6245019;23;20177;-48
2024/03/23 06:21:59;;;;;;;1.13;1.08;;;;;;;;;;6244606;22;20173;-53
2024/03/23 06:24:27;;;;;;;0.75;0.75;;;;;;;;;;6245805;22;20177;-49
2024/03/23 06:26:54;;;;;;;1.67;0.90;;;;;;;;;;6244644;22;20728;-49
2024/03/23 06:29:21;;;;;;;0.50;0.50;;;;;;;;;;6245451;22;20200;-50
2024/03/23 06:31:55;;;;;;;0.60;0.60;;;;;;;;;;6245299;22;20177;-51
2024/03/23 06:34:22;;;;;;;1.58;0.80;;;;;;;;;;6245621;22;20177;-55
2024/03/23 06:36:50;;;;;;;0.70;0.70;;;;;;;;;;6245637;22;20173;-53
2024/03/23 06:39:16;;;;;;;1.13;0.80;;;;;;;;;;6245185;22;20526;-53
2024/03/23 06:41:54;;;;;;;1.60;0.80;;;;;;;;;;6245332;22;20176;-54
2024/03/23 06:44:21;;;;;;;0.63;0.63;;;;;;;;;;6245345;22;20626;-50
2024/03/23 06:46:48;;;;;;;1.25;0.90;;;;;;;;;;6244832;22;20256;-54
2024/03/23 06:49:15;;;;;;;2.15;1.58;;;;;;;;;;6244879;22;20243;-54
2024/03/23 06:51:42;;;;;;;2.20;1.10;;;;;;;;;;6244800;22;20248;-50
2024/03/23 06:54:09;;;;;;;0.80;0.80;;;;;;;;;;6244445;22;20181;-52
2024/03/23 06:56:36;;;;;;;1.73;1.02;;;;;;;;;;6245076;22;20181;-51
2024/03/23 06:59:04;;;;;;;2.28;0.93;;;;;;;;;;6245241;22;20196;-52
2024/03/23 07:01:32;;;;;;;2.35;1.42;;;;;;;;;;6244554;22;20177;-52
2024/03/23 07:03:58;;;;;;;0.82;0.82;;;;;;;;;;6245026;22;20177;-49
2024/03/23 07:06:25;;;;;;;1.10;1.00;;;;;;;;;;6244763;22;20658;-52
2024/03/23 07:08:54;;;;;;;4.30;1.42;;;;;;;;;;6244709;22;20283;-48
2024/03/23 07:11:22;;;;;;;4.97;2.28;;;;;;;;;;6245093;23;20188;-50
2024/03/23 07:13:51;;;;;;;6.65;1.15;;;;;;;;;;6244692;22;20211;-51
2024/03/23 07:16:19;;;;;;;1.77;1.20;;;;;;;;;;6245569;23;20246;-51
2024/03/23 07:18:47;;;;;;;2.55;1.30;;;;;;;;;;6244586;22;20201;-53
2024/03/23 07:21:14;;;;;;;1.35;0.93;;;;;;;;;;6244888;22;20204;-50
2024/03/23 07:23:45;;;;;;;2.00;1.40;;;;;;;;;;6245036;22;20525;-51
2024/03/23 07:26:12;;;;;;;4.43;1.35;;;;;;;;;;6245230;23;20158;-52
2024/03/23 07:28:43;;;;;;;1.40;1.30;;;;;;;;;;6244383;22;20201;-52
2024/03/23 07:31:11;;;;;;;1.23;1.02;;;;;;;;;;6244860;23;20248;-54
2024/03/23 07:33:44;;;;;;;0.82;0.82;;;;;;;;;;6244844;22;20178;-53
2024/03/23 07:36:11;;;;;;;2.10;1.55;;;;;;;;;;6244964;23;20176;-49
2024/03/23 07:38:40;;;;;;;1.60;1.48;;;;;;;;;;6244640;22;20197;-50
2024/03/23 07:41:09;;;;;;;2.10;1.80;;;;;;;;;;6244739;23;20183;-50
2024/03/23 07:43:36;;;;;;;3.78;1.60;;;;;;;;;;6245420;22;20196;-53
2024/03/23 07:46:03;;;;;;;1.73;1.10;;;;;;;;;;6244594;22;20173;-51
2024/03/23 07:48:31;;;;;;;1.98;1.27;;;;;;;;;;6244613;22;20196;-51
2024/03/23 07:51:01;;;;;;;1.17;1.13;;;;;;;;;;6245134;23;20173;-52
2024/03/23 07:53:29;;;;;;;1.30;1.20;;;;;;;;;;6244495;22;20580;-49
2024/03/23 07:55:57;;;;;;;1.23;1.20;;;;;;;;;;6244621;22;20173;-49
2024/03/23 07:58:24;;;;;;;1.55;1.15;;;;;;;;;;6244450;22;20193;-50
2024/03/23 08:00:51;;;;;;;3.67;1.15;;;;;;;;;;6244006;22;20660;-50
2024/03/23 08:03:19;;;;;;;2.38;1.58;;;;;;;;;;6244195;22;20173;-53
2024/03/23 08:05:45;;;;;;;1.33;1.05;;;;;;;;;;6244158;22;20177;-52
2024/03/23 08:08:14;;;;;;;2.65;1.30;;;;;;;;;;6244320;22;20197;-52
2024/03/23 08:10:50;;;;;;;2.15;1.40;;;;;;;;;;6244337;22;20181;-52
2024/03/23 08:13:17;;;;;;;3.30;2.00;;;;;;;;;;6244676;22;20238;-50
2024/03/23 08:15:44;;;;;;;2.78;1.75;;;;;;;;;;6244215;22;20180;-52
2024/03/23 08:18:12;;;;;;;2.22;1.65;;;;;;;;;;6244351;22;20800;-51
2024/03/23 08:20:39;;;;;;;3.35;1.88;;;;;;;;;;6244434;23;20173;-51
2024/03/23 08:23:07;;;;;;;2.20;1.60;;;;;;;;;;6243914;22;20173;-50
2024/03/23 08:25:35;;;;;;;1.92;1.80;;;;;;;;;;6244567;22;20173;-49
2024/03/23 08:28:03;;;;;;;3.00;2.20;;;;;;;;;;6244142;22;20699;-50
2024/03/23 08:30:30;;;;;;;6.57;2.55;;;;;;;;;;6244049;22;20173;-49
2024/03/23 08:32:57;;;;;;;7.22;3.20;;;;;;;;;;6243755;22;20173;-52
2024/03/23 08:35:23;;;;;;;5.60;2.85;;;;;;;;;;6243885;22;20177;-49
2024/03/23 08:37:51;;;;;;;4.18;3.05;;;;;;;;;;6244336;22;20533;-48
2024/03/23 08:40:17;;;;;;;5.90;3.55;;;;;;;;;;6243909;22;20179;-51
2024/03/23 08:42:46;;;;;;;3.65;2.22;;;;;;;;;;6243791;22;20195;-51
2024/03/23 08:45:12;;;;;;;8.30;3.72;;;;;;;;;;6244291;22;20181;-52
2024/03/23 08:47:40;;;;;;;3.83;3.22;;;;;;;;;;6243614;22;20199;-49
2024/03/23 08:50:07;;;;;;;4.88;3.53;;;;;;;;;;6243873;22;20193;-53
2024/03/23 08:52:35;;;;;;;3.60;2.70;;;;;;;;;;6242993;22;20626;-49
2024/03/23 08:55:01;;;;;;;3.53;2.90;;;;;;;;;;6243640;22;20184;-50
2024/03/23 08:57:29;;;;;;;5.80;3.50;;;;;;;;;;6243275;22;20204;-51
2024/03/23 08:59:56;;;;;;;4.97;4.20;;;;;;;;;;6243530;22;20175;-49
2024/03/23 09:02:24;;;;;;;5.40;3.42;;;;;;;;;;6243361;22;20179;-50
2024/03/23 09:04:50;;;;;;;6.40;4.88;;;;;;;;;;6243321;22;20173;-52
2024/03/23 09:07:18;;;;;;;5.70;4.20;;;;;;;;;;6243570;22;20309;-49
2024/03/23 09:09:44;;;;;;;6.10;4.35;;;;;;;;;;6243789;22;20665;-49
2024/03/23 09:12:12;;;;;;;8.38;4.65;;;;;;;;;;6242933;22;20177;-49
2024/03/23 09:14:38;;;;;;;8.05;4.57;;;;;;;;;;6243709;22;20183;-51
2024/03/23 09:17:08;;;;;;;8.32;4.05;;;;;;;;;;6243939;22;20173;-51
2024/03/23 09:19:34;;;;;;;6.05;4.57;;;;;;;;;;6244352;22;20554;-53
2024/03/23 09:22:02;;;;;;;4.65;4.20;;;;;;;;;;6243338;22;20575;-53
2024/03/23 09:24:28;;;;;;;5.55;3.47;;;;;;;;;;6243540;22;20184;-54
2024/03/23 09:26:55;;;;;;;4.43;4.03;;;;;;;;;;6243364;22;20256;-52
2024/03/23 09:29:22;;;;;;;4.45;3.83;;;;;;;;;;6243975;22;20720;-50
2024/03/23 09:31:49;;;;;;;8.23;5.40;;;;;;;;;;6243743;22;20177;-51
2024/03/23 09:34:17;;;;;;;7.28;4.85;;;;;;;;;;6243789;22;20173;-50
2024/03/23 09:36:45;;;;;;;8.02;5.90;;;;;;;;;;6243070;22;20255;-49
2024/03/23 09:39:13;;;;;;;8.57;5.80;;;;;;;;;;6243263;22;20195;-48
2024/03/23 09:41:41;;;;;;;8.13;5.15;;;;;;;;;;6243341;23;20177;-47
2024/03/23 09:44:08;;;;;;;12.07;5.57;;;;;;;;;;6243092;22;20206;-49
2024/03/23 09:46:36;;;;;;;7.82;5.28;;;;;;;;;;6243137;22;20709;-48
2024/03/23 09:49:04;;;;;;;6.88;5.45;;;;;;;;;;6243801;22;20279;-53
2024/03/23 09:51:33;;;;;;;9.15;5.00;;;;;;;;;;6243787;23;20196;-50
2024/03/23 09:53:59;;;;;;;9.13;4.72;;;;;;;;;;6243116;22;20184;-49
2024/03/23 09:56:27;;;;;;;4.60;4.03;;;;;;;;;;6242611;22;20700;-50
2024/03/23 09:59:01;;;;;;;9.57;5.32;;;;;;;;;;6242502;22;20192;-49
2024/03/23 10:01:30;;;;;;;7.93;5.47;;;;;;;;;;6243102;22;20691;-49
2024/03/23 10:03:57;;;;;;;7.28;5.05;;;;;;;;;;6243218;23;20173;-48
2024/03/23 10:06:25;;;;;;;6.18;4.50;;;;;;;;;;6243249;22;20204;-52
2024/03/23 10:08:54;;;;;;;9.75;5.22;;;;;;;;;;6243025;23;20204;-51
2024/03/23 10:11:22;;;;;;;7.95;5.22;;;;;;;;;;6243206;23;20177;-49
2024/03/23 10:13:50;;;;;;;5.63;4.32;;;;;;;;;;6243520;22;20252;-53
2024/03/23 10:16:23;;;;;;;4.70;3.72;;;;;;;;;;6243904;23;20173;-50
2024/03/23 10:18:50;;;;;;;8.02;4.13;;;;;;;;;;6243649;23;20197;-52
2024/03/23 10:21:18;;;;;;;5.32;4.03;;;;;;;;;;6243419;22;20196;-49
2024/03/23 10:23:46;;;;;;;5.50;3.97;;;;;;;;;;6244476;22;20517;-51
2024/03/23 10:26:21;;;;;;;5.22;3.75;;;;;;;;;;6245366;22;20184;-51
2024/03/23 10:28:58;;;;;;;4.82;4.22;;;;;;;;;;6245354;22;20193;-49
2024/03/23 10:31:26;;;;;;;7.70;3.92;;;;;;;;;;6245477;23;20230;-55
2024/03/23 10:33:54;;;;;;;8.75;3.70;;;;;;;;;;6245252;23;20173;-50
2024/03/23 10:36:21;;;;;;;8.18;3.53;;;;;;;;;;6245521;23;20173;-49
2024/03/23 10:38:50;;;;;;;5.03;2.80;;;;;;;;;;6245310;23;20267;-49
2024/03/23 10:41:18;;;;;;;2.72;2.47;;;;;;;;;;6245196;23;20630;-48
2024/03/23 10:43:48;;;;;;;11.02;3.17;;;;;;;;;;6244118;22;20173;-50
2024/03/23 10:46:14;;;;;;;2.42;2.17;;;;;;;;;;6245346;22;20177;-49
2024/03/23 10:48:43;;;;;;;4.28;3.30;;;;;;;;;;6244816;22;20199;-49
2024/03/23 10:51:09;;;;;;;4.45;2.67;;;;;;;;;;6245278;23;20193;-50
2024/03/23 10:53:38;;;;;;;5.57;3.05;;;;;;;;;;6244610;22;20215;-52
2024/03/23 10:56:05;;;;;;;6.72;2.45;;;;;;;;;;6245127;22;20235;-49
2024/03/23 10:58:39;;;;;;;2.47;1.90;;;;;;;;;;6244108;22;20565;-49
2024/03/23 11:01:05;;;;;;;2.90;2.40;;;;;;;;;;6245438;23;20153;-52
2024/03/23 11:03:37;;;;;;;2.95;2.22;;;;;;;;;;6244859;22;20173;-48
2024/03/23 11:06:05;;;;;;;3.70;2.28;;;;;;;;;;6244686;23;20181;-51
2024/03/23 11:08:34;;;;;;;3.30;2.25;;;;;;;;;;6244198;22;20197;-48
2024/03/23 11:11:18;;;;;;;3.60;2.58;;;;;;;;;;6244609;23;20290;-49
2024/03/23 11:13:49;;;;;;;3.00;2.63;;;;;;;;;;6244332;22;20256;-49
2024/03/23 11:16:17;;;;;;;2.10;1.75;;;;;;;;;;6244944;22;20173;-51
2024/03/23 11:18:45;;;;;;;2.22;1.98;;;;;;;;;;6244293;22;20212;-51
2024/03/23 11:21:54;;;;;;;2.53;1.75;;;;;;;;;;6244478;22;20183;-50
2024/03/23 11:24:22;;;;;;;1.45;1.35;;;;;;;;;;6244847;23;20259;-50
2024/03/23 11:26:49;;;;;;;2.08;1.35;;;;;;;;;;6244522;22;20173;-49
2024/03/23 11:29:19;;;;;;;3.05;1.83;;;;;;;;;;6244593;22;20539;-55
2024/03/23 11:31:48;;;;;;;3.88;1.70;;;;;;;;;;6244604;22;20177;-49
2024/03/23 11:34:17;;;;;;;3.50;1.70;;;;;;;;;;6244919;22;20183;-51
2024/03/23 11:36:43;;;;;;;3.88;1.67;;;;;;;;;;6244391;22;20173;-51
2024/03/23 11:39:16;;;;;;;1.90;1.65;;;;;;;;;;6244215;22;20197;-50
2024/03/23 11:41:50;;;;;;;1.95;1.30;;;;;;;;;;6244412;23;20204;-54
2024/03/23 11:44:20;;;;;;;1.73;1.33;;;;;;;;;;6244880;23;20181;-52
2024/03/23 11:46:47;;;;;;;1.88;1.40;;;;;;;;;;6244865;23;20674;-52
2024/03/23 11:49:24;;;;;;;2.55;1.40;;;;;;;;;;6244477;22;20193;-52
2024/03/23 11:51:54;;;;;;;1.48;1.38;;;;;;;;;;6244065;22;20173;-51
2024/03/23 11:54:22;;;;;;;1.85;1.58;;;;;;;;;;6244473;23;20180;-53
2024/03/23 11:56:56;;;;;;;1.67;1.58;;;;;;;;;;6243923;22;20173;-53
2024/03/23 11:59:35;;;;;;;1.20;1.10;;;;;;;;;;6244156;22;20717;-52
2024/03/23 12:02:07;;;;;;;4.07;1.33;;;;;;;;;;6244734;22;20179;-54
2024/03/23 12:04:36;;;;;;;1.20;1.10;;;;;;;;;;6244714;22;20196;-51
2024/03/23 12:07:11;;;;;;;1.83;0.82;;;;;;;;;;6244386;23;20184;-50
2024/03/23 12:09:38;;;;;;;2.65;0.93;;;;;;;;;;6244511;23;20200;-50
2024/03/23 12:12:10;;;;;;;0.80;0.77;;;;;;;;;;6243957;22;20221;-50
2024/03/23 12:14:39;;;;;;;0.73;0.73;;;;;;;;;;6244747;22;20545;-52
2024/03/23 12:17:12;;;;;;;0.98;0.88;;;;;;;;;;6244426;22;20259;-50
2024/03/23 12:19:41;;;;;;;0.80;0.80;;;;;;;;;;6244049;22;20176;-51
2024/03/23 12:22:08;;;;;;;1.40;0.70;;;;;;;;;;6243953;23;20177;-50
2024/03/23 12:24:36;;;;;;;1.60;0.65;;;;;;;;;;6244345;22;20193;-49
2024/03/23 12:27:03;;;;;;;0.82;0.77;;;;;;;;;;6244174;22;20195;-52
2024/03/23 12:29:32;;;;;;;1.10;0.80;;;;;;;;;;6243833;22;20173;-49
2024/03/23 12:32:02;;;;;;;1.27;0.80;;;;;;;;;;6243494;22;20204;-49
2024/03/23 12:34:31;;;;;;;0.88;0.88;;;;;;;;;;6243880;22;20758;-47
2024/03/23 12:36:57;;;;;;;2.05;1.08;;;;;;;;;;6244113;23;20176;-48
2024/03/23 12:39:25;;;;;;;1.45;1.30;;;;;;;;;;6244020;22;20173;-51
2024/03/23 12:41:52;;;;;;;1.95;1.35;;;;;;;;;;6243814;22;20173;-48
2024/03/23 12:44:20;;;;;;;1.27;1.17;;;;;;;;;;6244248;22;20523;-49
2024/03/23 12:46:47;;;;;;;2.60;1.23;;;;;;;;;;6244041;23;20173;-51
2024/03/23 12:49:16;;;;;;;1.27;1.17;;;;;;;;;;6244061;22;20200;-51
2024/03/23 12:51:53;;;;;;;1.67;1.40;;;;;;;;;;6243095;22;20201;-48
2024/03/23 12:54:20;;;;;;;3.38;1.50;;;;;;;;;;6243908;23;20234;-47
2024/03/23 12:56:47;;;;;;;1.40;1.30;;;;;;;;;;6242938;22;20243;-48
2024/03/23 12:59:14;;;;;;;1.40;1.13;;;;;;;;;;6242983;22;20200;-50
2024/03/23 13:01:41;;;;;;;1.73;1.50;;;;;;;;;;6243957;22;20199;-50
2024/03/23 13:04:09;;;;;;;1.60;1.50;;;;;;;;;;6243583;22;20252;-52
2024/03/23 13:06:36;;;;;;;5.75;2.15;;;;;;;;;;6244040;22;20238;-53
2024/03/23 13:09:04;;;;;;;2.13;1.52;;;;;;;;;;6243640;22;20227;-54
2024/03/23 13:11:31;;;;;;;2.78;1.40;;;;;;;;;;6243921;22;20583;-53
2024/03/23 13:13:58;;;;;;;1.40;1.23;;;;;;;;;;6243548;22;20177;-54
2024/03/23 13:16:25;;;;;;;1.60;1.50;;;;;;;;;;6243521;22;20173;-53
2024/03/23 13:18:52;;;;;;;1.65;1.10;;;;;;;;;;6243392;22;20214;-52
2024/03/23 13:21:19;;;;;;;1.92;1.40;;;;;;;;;;6243104;22;20169;-53
2024/03/23 13:23:50;;;;;;;1.88;1.27;;;;;;;;;;6243227;22;20179;-53
2024/03/23 13:26:17;;;;;;;2.42;2.20;;;;;;;;;;6244169;23;20594;-50
2024/03/23 13:28:45;;;;;;;2.38;1.67;;;;;;;;;;6243398;22;20535;-50
2024/03/23 13:31:11;;;;;;;3.08;1.52;;;;;;;;;;6243664;22;20227;-51
2024/03/23 13:33:39;;;;;;;2.70;2.50;;;;;;;;;;6243006;22;20177;-50
2024/03/23 13:36:07;;;;;;;1.63;1.40;;;;;;;;;;6243858;23;20500;-50
2024/03/23 13:38:34;;;;;;;1.33;1.23;;;;;;;;;;6243220;22;20224;-48
2024/03/23 13:41:04;;;;;;;1.10;1.10;;;;;;;;;;6243303;22;20172;-49
2024/03/23 13:43:31;;;;;;;1.20;0.93;;;;;;;;;;6243853;23;20169;-48
2024/03/23 13:45:59;;;;;;;3.20;1.55;;;;;;;;;;6243287;22;20184;-50
2024/03/23 13:48:29;;;;;;;1.35;1.00;;;;;;;;;;6243228;22;20908;-48
2024/03/23 13:50:58;;;;;;;0.88;0.88;;;;;;;;;;6244021;22;20196;-49
2024/03/23 13:53:26;;;;;;;1.23;0.60;;;;;;;;;;6243050;22;20525;-50
2024/03/23 13:55:53;;;;;;;0.60;0.60;;;;;;;;;;6243802;22;20173;-49
2024/03/23 13:58:23;;;;;;;0.70;0.70;;;;;;;;;;6244913;22;20193;-50
2024/03/23 14:00:50;;;;;;;1.05;0.80;;;;;;;;;;6246017;23;20180;-52
2024/03/23 14:03:18;;;;;;;0.70;0.70;;;;;;;;;;6245289;22;20199;-52
2024/03/23 14:05:46;;;;;;;0.95;0.80;;;;;;;;;;6245610;23;20177;-49
2024/03/23 14:08:14;;;;;;;0.68;0.68;;;;;;;;;;6245561;23;20193;-49
2024/03/23 14:10:41;;;;;;;0.77;0.77;;;;;;;;;;6245635;22;20512;-50
2024/03/23 14:13:09;;;;;;;0.63;0.63;;;;;;;;;;6245132;22;20649;-49
2024/03/23 14:15:36;;;;;;;0.63;0.63;;;;;;;;;;6245874;22;20172;-49
2024/03/23 14:18:04;;;;;;;0.70;0.70;;;;;;;;;;6244994;22;20193;-49
2024/03/23 14:20:31;;;;;;;0.70;0.70;;;;;;;;;;6245835;23;20173;-49
2024/03/23 14:22:58;;;;;;;0.80;0.80;;;;;;;;;;6245321;22;20196;-48
2024/03/23 14:25:28;;;;;;;3.45;1.45;;;;;;;;;;6245221;22;20173;-49
2024/03/23 14:27:56;;;;;;;0.95;0.95;;;;;;;;;;6245742;23;20193;-49
2024/03/23 14:30:22;;;;;;;1.33;0.90;;;;;;;;;;6245542;22;20179;-50
2024/03/23 14:32:51;;;;;;;0.82;0.70;;;;;;;;;;6244300;22;20203;-51
2024/03/23 14:35:18;;;;;;;1.45;1.27;;;;;;;;;;6245016;22;20191;-52
2024/03/23 14:37:46;;;;;;;0.70;0.70;;;;;;;;;;6244977;22;20197;-51
2024/03/23 14:40:13;;;;;;;2.22;2.10;;;;;;;;;;6245519;23;20640;-49
2024/03/23 14:42:41;;;;;;;1.13;1.05;;;;;;;;;;6245098;22;20169;-49
2024/03/23 14:45:08;;;;;;;0.90;0.90;;;;;;;;;;6244782;22;20177;-51
2024/03/23 14:47:36;;;;;;;0.90;0.90;;;;;;;;;;6244900;22;20224;-54
2024/03/23 14:50:04;;;;;;;1.17;1.08;;;;;;;;;;6245226;22;20503;-48